createdAt,value
2022-12-29T00:02:10.949Z,2.7
2022-12-29T00:05:12.875Z,6.9
2022-12-29T00:08:14.835Z,3.6
2022-12-29T00:11:16.771Z,5.3
2022-12-29T00:14:22.844Z,3.7
2022-12-29T00:17:20.689Z,3
2022-12-29T00:20:22.627Z,4.2
2022-12-29T00:23:24.581Z,3.4
2022-12-29T00:26:26.548Z,2.5
2022-12-29T00:29:28.492Z,3.9
2022-12-29T00:32:30.439Z,3.7
2022-12-29T00:35:32.408Z,3.5
2022-12-29T00:38:34.366Z,3.6
2022-12-29T00:41:36.306Z,2.8
2022-12-29T00:44:38.265Z,3.2
2022-12-29T00:47:40.217Z,2.4
2022-12-29T00:50:42.168Z,4.6
2022-12-29T00:53:44.116Z,4.2
2022-12-29T00:56:46.077Z,3.6
2022-12-29T00:59:48.056Z,3.1
2022-12-29T01:02:50.147Z,3.4
2022-12-29T01:05:51.941Z,3.1
2022-12-29T01:08:53.901Z,3.2
2022-12-29T01:11:55.853Z,2.9
2022-12-29T01:14:57.819Z,3.2
2022-12-29T01:17:59.762Z,3.1
2022-12-29T01:21:01.749Z,2.3
2022-12-29T01:24:03.693Z,3.2
2022-12-29T01:27:05.648Z,3.1
2022-12-29T01:30:07.597Z,2.1
2022-12-29T01:33:09.564Z,2.6
2022-12-29T01:36:11.540Z,3.3
2022-12-29T01:39:13.486Z,3.2
2022-12-29T01:42:15.467Z,3.2
2022-12-29T01:45:17.431Z,3
2022-12-29T01:48:19.393Z,2.5
2022-12-29T01:51:21.362Z,2.4
2022-12-29T01:54:23.337Z,2.3
2022-12-29T01:57:25.295Z,2.1
2022-12-29T02:00:27.257Z,2.6
2022-12-29T02:03:29.319Z,2.6
2022-12-29T02:06:31.195Z,2
2022-12-29T02:09:33.159Z,1.3
2022-12-29T02:12:35.132Z,2.1
2022-12-29T02:15:37.088Z,1.7
2022-12-29T02:18:39.056Z,2.8
2022-12-29T02:21:41.059Z,2.7
2022-12-29T02:24:42.969Z,2.8
2022-12-29T02:27:44.952Z,2.6
2022-12-29T02:30:46.915Z,2.1
2022-12-29T02:33:48.868Z,1.6
2022-12-29T02:36:50.833Z,1.8
2022-12-29T02:39:52.785Z,2.8
2022-12-29T02:42:54.783Z,3
2022-12-29T02:45:56.786Z,2.4
2022-12-29T02:48:58.697Z,3.3
2022-12-29T02:52:00.659Z,2.7
2022-12-29T02:55:02.613Z,2
2022-12-29T02:58:04.577Z,1.3
2022-12-29T03:01:06.582Z,1
2022-12-29T03:04:08.513Z,1
2022-12-29T03:07:10.498Z,2.1
2022-12-29T03:10:12.450Z,2.5
2022-12-29T03:13:14.431Z,1.5
2022-12-29T03:16:16.456Z,1.5
2022-12-29T03:19:18.353Z,2.5
2022-12-29T03:22:20.319Z,0.8
2022-12-29T03:25:22.314Z,1.6
2022-12-29T03:28:24.276Z,1.1
2022-12-29T03:31:26.261Z,1.1
2022-12-29T03:34:28.214Z,1.5
2022-12-29T03:37:30.188Z,2.1
2022-12-29T03:40:32.168Z,1.9
2022-12-29T03:43:34.108Z,3.2
2022-12-29T03:46:36.123Z,2.5
2022-12-29T03:49:38.080Z,3.7
2022-12-29T03:52:40.039Z,2.2
2022-12-29T03:55:41.980Z,4.3
2022-12-29T03:58:43.947Z,1.7
2022-12-29T04:01:45.986Z,1.6
2022-12-29T04:04:47.875Z,3.2
2022-12-29T04:07:49.842Z,5.8
2022-12-29T04:10:51.841Z,2.3
2022-12-29T04:13:53.777Z,2.8
2022-12-29T04:16:55.747Z,3.2
2022-12-29T04:19:57.704Z,1.9
2022-12-29T04:22:59.655Z,4.5
2022-12-29T04:26:01.623Z,1.8
2022-12-29T04:29:03.595Z,2
2022-12-29T04:32:05.564Z,2.1
2022-12-29T04:35:07.547Z,2.5
2022-12-29T04:38:09.484Z,2.9
2022-12-29T04:41:11.466Z,2.8
2022-12-29T04:44:13.406Z,3.9
2022-12-29T04:47:15.373Z,2.7
2022-12-29T04:50:17.329Z,3.9
2022-12-29T04:53:19.323Z,2.3
2022-12-29T04:56:21.248Z,2.4
2022-12-29T04:59:23.209Z,3.5
2022-12-29T05:02:25.385Z,2
2022-12-29T05:05:27.133Z,2.7
2022-12-29T05:08:29.114Z,2.8
2022-12-29T05:11:31.065Z,3.8
2022-12-29T05:14:33.019Z,1.6
2022-12-29T05:17:34.981Z,5.9
2022-12-29T05:20:36.947Z,1.9
2022-12-29T05:23:38.917Z,1.4
2022-12-29T05:26:40.871Z,3.6
2022-12-29T05:29:42.835Z,2.6
2022-12-29T05:32:44.809Z,2.2
2022-12-29T05:35:46.780Z,3.2
2022-12-29T05:38:48.739Z,3.7
2022-12-29T05:41:50.712Z,3.8
2022-12-29T05:44:52.679Z,3.8
2022-12-29T05:47:54.639Z,2.8
2022-12-29T05:50:56.603Z,2
2022-12-29T05:53:58.567Z,2.8
2022-12-29T05:57:00.526Z,2.1
2022-12-29T06:00:02.517Z,3.1
2022-12-29T06:03:04.535Z,2.5
2022-12-29T06:06:06.444Z,1.9
2022-12-29T06:09:08.404Z,2.3
2022-12-29T06:12:10.377Z,2.8
2022-12-29T06:15:12.389Z,1.9
2022-12-29T06:18:19.515Z,1.3
2022-12-29T06:21:16.289Z,2.2
2022-12-29T06:24:18.242Z,4.7
2022-12-29T06:27:20.244Z,3.2
2022-12-29T06:30:22.180Z,1.6
2022-12-29T06:33:24.165Z,1.5
2022-12-29T06:36:26.119Z,1.3
2022-12-29T06:39:28.063Z,1.9
2022-12-29T06:42:30.043Z,5
2022-12-29T06:45:32.148Z,1.6
2022-12-29T06:48:34.039Z,2.2
2022-12-29T06:51:35.975Z,1.8
2022-12-29T06:54:37.933Z,2.5
2022-12-29T06:57:39.918Z,3.4
2022-12-29T07:00:41.870Z,2.1
2022-12-29T07:03:43.833Z,3.1
2022-12-29T07:06:45.804Z,3
2022-12-29T07:09:47.759Z,2
2022-12-29T07:12:49.722Z,3.2
2022-12-29T07:15:51.678Z,2.1
2022-12-29T07:18:53.644Z,4
2022-12-29T07:21:55.607Z,3.1
2022-12-29T07:24:57.562Z,3
2022-12-29T07:27:59.531Z,2.6
2022-12-29T07:31:01.509Z,2.5
2022-12-29T07:34:03.464Z,3.1
2022-12-29T07:37:05.418Z,3.6
2022-12-29T07:40:07.415Z,4.3
2022-12-29T07:43:09.373Z,3.5
2022-12-29T07:46:17.538Z,2
2022-12-29T07:49:13.310Z,4.6
2022-12-29T07:52:15.277Z,3.7
2022-12-29T07:55:17.231Z,3.6
2022-12-29T07:58:19.201Z,3.4
2022-12-29T08:01:21.223Z,3.1
2022-12-29T08:04:23.158Z,4.2
2022-12-29T08:07:25.088Z,4.3
2022-12-29T08:10:27.199Z,3.7
2022-12-29T08:13:29.038Z,4.4
2022-12-29T08:16:31.072Z,4.2
2022-12-29T08:19:32.958Z,3.1
2022-12-29T08:22:34.929Z,3.8
2022-12-29T08:25:37.118Z,5.8
2022-12-29T08:28:39.066Z,4.2
2022-12-29T08:31:40.892Z,4.1
2022-12-29T08:34:42.808Z,3.5
2022-12-29T08:37:47.825Z,2.9
2022-12-29T08:40:49.736Z,3.6
2022-12-29T08:43:51.729Z,2.8
2022-12-29T08:46:53.804Z,3.1
2022-12-29T08:49:55.641Z,2.6
2022-12-29T08:52:57.585Z,4.9
2022-12-29T08:56:03.938Z,3.6
2022-12-29T08:59:01.578Z,3.5
2022-12-29T09:02:03.668Z,5
2022-12-29T09:05:05.539Z,3.4
2022-12-29T09:08:07.458Z,3.6
2022-12-29T09:11:09.405Z,3.2
2022-12-29T09:14:13.878Z,2.9
2022-12-29T09:17:13.471Z,7.1
2022-12-29T09:20:15.488Z,5.4
2022-12-29T09:23:17.428Z,4.7
2022-12-29T09:26:19.407Z,5.7
2022-12-29T09:29:21.407Z,6.3
2022-12-29T09:32:23.704Z,5.5
2022-12-29T09:35:25.309Z,4.1
2022-12-29T09:38:27.384Z,6.9
2022-12-29T09:41:29.297Z,5.2
2022-12-29T09:44:31.255Z,6
2022-12-29T09:47:33.219Z,9.8
2022-12-29T09:50:35.202Z,6.2
2022-12-29T09:53:37.169Z,5.9
2022-12-29T09:56:39.249Z,4.1
2022-12-29T09:59:41.124Z,3.3
2022-12-29T10:02:43.169Z,5.5
2022-12-29T10:05:45.038Z,7.6
2022-12-29T10:08:46.988Z,6.1
2022-12-29T10:11:48.956Z,4.8
2022-12-29T10:14:50.913Z,5.4
2022-12-29T10:17:52.877Z,4.2
2022-12-29T10:20:54.850Z,2.2
2022-12-29T10:23:56.792Z,3
2022-12-29T10:26:58.763Z,2.2
2022-12-29T10:30:00.739Z,5.8
2022-12-29T10:33:02.684Z,2.8
2022-12-29T10:36:04.656Z,2.2
2022-12-29T10:39:06.635Z,2.3
2022-12-29T10:42:08.566Z,3
2022-12-29T10:45:10.714Z,1.9
2022-12-29T10:48:12.495Z,2.2
2022-12-29T10:51:14.462Z,1.6
2022-12-29T10:54:16.421Z,2.7
2022-12-29T10:57:18.405Z,1.9
2022-12-29T11:00:20.379Z,3
2022-12-29T11:03:22.456Z,3
2022-12-29T11:06:24.297Z,2.8
2022-12-29T11:09:41.364Z,2.4
2022-12-29T11:12:28.252Z,5.1
2022-12-29T11:15:30.202Z,2.9
2022-12-29T11:18:32.163Z,2.2
2022-12-29T11:21:34.123Z,2.3
2022-12-29T11:24:36.063Z,2.9
2022-12-29T11:27:38.024Z,1.6
2022-12-29T11:30:39.988Z,1.9
2022-12-29T11:33:41.953Z,3.2
2022-12-29T11:36:43.911Z,1.6
2022-12-29T11:39:45.912Z,2.4
2022-12-29T11:42:47.827Z,3.6
2022-12-29T11:45:49.845Z,2.9
2022-12-29T11:48:51.786Z,3.9
2022-12-29T11:51:53.753Z,1.5
2022-12-29T11:54:55.698Z,2.3
2022-12-29T11:57:57.681Z,1.8
2022-12-29T12:00:59.644Z,2.1
2022-12-29T12:04:01.624Z,1.3
2022-12-29T12:07:03.579Z,1.6
2022-12-29T12:10:07.949Z,3.3
2022-12-29T12:13:07.491Z,3.3
2022-12-29T12:16:09.535Z,2.3
2022-12-29T12:19:11.417Z,1.4
2022-12-29T12:22:13.378Z,2
2022-12-29T12:25:15.332Z,2.5
2022-12-29T12:28:17.289Z,2.3
2022-12-29T12:31:19.384Z,1.2
2022-12-29T12:34:21.217Z,1.8
2022-12-29T12:37:23.250Z,1.5
2022-12-29T12:40:25.125Z,2.4
2022-12-29T12:43:27.087Z,1.5
2022-12-29T12:46:29.117Z,2.2
2022-12-29T12:49:31.027Z,2.3
2022-12-29T12:52:33.078Z,1.2
2022-12-29T12:55:34.965Z,1.2
2022-12-29T12:58:36.933Z,3.4
2022-12-29T13:01:39.023Z,1.5
2022-12-29T13:04:40.954Z,1.8
2022-12-29T13:07:42.826Z,2
2022-12-29T13:10:48.403Z,2.4
2022-12-29T13:13:46.801Z,1.6
2022-12-29T13:16:48.720Z,2
2022-12-29T13:19:50.679Z,2.6
2022-12-29T13:22:52.626Z,2.3
2022-12-29T13:25:54.590Z,1.9
2022-12-29T13:28:56.572Z,1.2
2022-12-29T13:31:58.523Z,2.6
2022-12-29T13:35:00.479Z,1.3
2022-12-29T13:38:02.464Z,1.7
2022-12-29T13:41:04.398Z,1.7
2022-12-29T13:44:06.372Z,1.4
2022-12-29T13:47:08.320Z,1.7
2022-12-29T13:50:10.300Z,2.6
2022-12-29T13:53:12.364Z,1.8
2022-12-29T13:56:14.226Z,2
2022-12-29T13:59:16.181Z,2.7
2022-12-29T14:02:18.231Z,2.8
2022-12-29T14:05:20.133Z,3
2022-12-29T14:08:22.092Z,1.7
2022-12-29T14:11:24.054Z,1.9
2022-12-29T14:14:26.032Z,1.6
2022-12-29T14:17:27.987Z,3.1
2022-12-29T14:20:29.959Z,3
2022-12-29T14:23:31.930Z,2.5
2022-12-29T14:26:33.925Z,2.2
2022-12-29T14:29:35.849Z,3.3
2022-12-29T14:32:37.822Z,2
2022-12-29T14:35:39.778Z,3.9
2022-12-29T14:38:41.754Z,2.9
2022-12-29T14:41:43.725Z,4.6
2022-12-29T14:44:45.700Z,3.2
2022-12-29T14:47:47.663Z,3.2
2022-12-29T14:50:49.645Z,4.1
2022-12-29T14:53:51.651Z,2.6
2022-12-29T14:56:53.548Z,3.6
2022-12-29T14:59:55.527Z,2
2022-12-29T15:02:57.576Z,2.2
2022-12-29T15:06:00.857Z,2.9
2022-12-29T15:09:01.436Z,3.2
2022-12-29T15:12:03.399Z,4.2
2022-12-29T15:15:05.370Z,4
2022-12-29T15:18:07.338Z,2.3
2022-12-29T15:21:09.294Z,3.2
2022-12-29T15:24:11.246Z,3.3
2022-12-29T15:27:13.257Z,4.2
2022-12-29T15:30:17.954Z,2.2
2022-12-29T15:33:17.170Z,2.6
2022-12-29T15:36:19.135Z,5.9
2022-12-29T15:39:21.116Z,2.9
2022-12-29T15:42:23.054Z,2.7
2022-12-29T15:45:25.036Z,3.4
2022-12-29T15:48:26.994Z,1.6
2022-12-29T15:51:28.947Z,4.4
2022-12-29T15:54:30.931Z,6.7
2022-12-29T15:57:32.883Z,3.4
2022-12-29T16:00:34.839Z,2.4
2022-12-29T16:03:36.911Z,3.4
2022-12-29T16:06:38.796Z,2.6
2022-12-29T16:09:40.759Z,3.6
2022-12-29T16:12:42.736Z,3.2
2022-12-29T16:15:44.706Z,2.9
2022-12-29T16:18:49.356Z,2.5
2022-12-29T16:21:48.629Z,3.6
2022-12-29T16:24:50.575Z,3.7
2022-12-29T16:27:52.546Z,2.3
2022-12-29T16:30:54.563Z,3.2
2022-12-29T16:33:56.503Z,3.2
2022-12-29T16:36:58.455Z,2.5
2022-12-29T16:40:00.573Z,3
2022-12-29T16:43:02.599Z,3
2022-12-29T16:46:04.565Z,2.8
2022-12-29T16:49:06.527Z,4
2022-12-29T16:52:08.518Z,2.9
2022-12-29T16:55:10.475Z,4.4
2022-12-29T16:58:12.559Z,4.4
2022-12-29T17:01:14.492Z,2.5
2022-12-29T17:04:16.393Z,6
2022-12-29T17:07:18.564Z,5.2
2022-12-29T17:10:20.315Z,4.4
2022-12-29T17:13:22.279Z,1.9
2022-12-29T17:16:24.360Z,2.6
2022-12-29T17:19:26.355Z,3.8
2022-12-29T17:22:28.250Z,2.8
2022-12-29T17:25:30.200Z,3.3
2022-12-29T17:28:32.175Z,4.2
2022-12-29T17:31:34.193Z,2.8
2022-12-29T17:34:36.117Z,3.4
2022-12-29T17:37:38.065Z,3.4
2022-12-29T17:40:40.037Z,7.4
2022-12-29T17:43:42.009Z,3.6
2022-12-29T17:46:43.965Z,3.8
2022-12-29T17:49:47.683Z,3.7
2022-12-29T17:52:48.049Z,4.4
2022-12-29T17:55:49.996Z,4.7
2022-12-29T17:58:51.984Z,5.1
2022-12-29T18:01:53.997Z,2.8
2022-12-29T18:04:55.924Z,2.4
2022-12-29T18:07:57.883Z,4.5
2022-12-29T18:10:59.916Z,2.9
2022-12-29T18:14:01.884Z,5
2022-12-29T18:17:03.849Z,4.4
2022-12-29T18:20:05.809Z,4.9
2022-12-29T18:23:07.776Z,4.4
2022-12-29T18:26:09.729Z,4.2
2022-12-29T18:29:11.738Z,5.1
2022-12-29T18:32:13.667Z,4.9
2022-12-29T18:35:15.619Z,2.9
2022-12-29T18:38:17.816Z,4.3
2022-12-29T18:41:19.770Z,4.3
2022-12-29T18:44:21.752Z,4.2
2022-12-29T18:47:23.726Z,3.8
2022-12-29T18:50:25.756Z,6.3
2022-12-29T18:53:28.199Z,3.9
2022-12-29T18:56:30.056Z,5
2022-12-29T18:59:35.015Z,4.8
2022-12-29T19:02:39.543Z,5.5
2022-12-29T19:05:39.076Z,5.5
2022-12-29T19:08:41.307Z,4.1
2022-12-29T19:11:43.253Z,3.7
2022-12-29T19:14:45.212Z,3.9
2022-12-29T19:17:56.636Z,6.7
2022-12-29T19:20:49.165Z,5
2022-12-29T19:23:51.157Z,3.5
2022-12-29T19:26:53.100Z,3.9
2022-12-29T19:29:55.061Z,6.2
2022-12-29T19:32:57.014Z,4.4
2022-12-29T19:35:59.019Z,5.8
2022-12-29T19:39:00.982Z,4.7
2022-12-29T19:42:05.446Z,8.7
2022-12-29T19:45:04.890Z,6.5
2022-12-29T19:48:06.851Z,6.2
2022-12-29T19:51:08.984Z,7.1
2022-12-29T19:54:13.760Z,5.8
2022-12-29T19:57:15.725Z,4.6
2022-12-29T20:00:17.685Z,7.3
2022-12-29T20:03:20.000Z,8.8
2022-12-29T20:06:21.829Z,7
2022-12-29T20:09:26.554Z,4.3
2022-12-29T20:12:29.381Z,7
2022-12-29T20:15:30.619Z,6
2022-12-29T20:18:32.660Z,5.4
2022-12-29T20:21:34.533Z,6
2022-12-29T20:24:36.601Z,9
2022-12-29T20:27:38.572Z,9.4
2022-12-29T20:30:46.222Z,5.7
2022-12-29T20:33:45.336Z,3.7
2022-12-29T20:36:47.309Z,3.6
2022-12-29T20:39:49.406Z,6.3
2022-12-29T20:42:51.429Z,7.4
2022-12-29T20:45:53.398Z,5.6
2022-12-29T20:48:55.300Z,7.4
2022-12-29T20:52:06.067Z,6.4
2022-12-29T20:54:59.297Z,4.6
2022-12-29T20:58:24.531Z,5.2
2022-12-29T21:01:03.270Z,7.9
2022-12-29T21:04:05.206Z,6.5
2022-12-29T21:07:07.211Z,5.4
2022-12-29T21:10:09.171Z,6.7
2022-12-29T21:13:11.156Z,8
2022-12-29T21:16:13.156Z,6.8
2022-12-29T21:19:15.079Z,4.1
2022-12-29T21:22:17.042Z,7
2022-12-29T21:25:19.006Z,6.1
2022-12-29T21:28:20.972Z,7.2
2022-12-29T21:31:23.099Z,6.5
2022-12-29T21:34:24.897Z,7.3
2022-12-29T21:37:26.872Z,5.8
2022-12-29T21:40:28.851Z,4.9
2022-12-29T21:43:30.805Z,5.8
2022-12-29T21:46:32.869Z,4.1
2022-12-29T21:49:34.998Z,5.3
2022-12-29T21:52:36.747Z,4
2022-12-29T21:55:38.893Z,6.3
2022-12-29T21:58:40.662Z,4.2
2022-12-29T22:01:42.910Z,12.5
2022-12-29T22:04:44.607Z,5.6
2022-12-29T22:07:46.545Z,6
2022-12-29T22:10:48.525Z,11.9
2022-12-29T22:13:50.488Z,5.7
2022-12-29T22:16:52.460Z,5.5
2022-12-29T22:19:54.407Z,7.9
2022-12-29T22:22:56.375Z,6.7
2022-12-29T22:25:58.324Z,6.7
2022-12-29T22:29:00.305Z,9
2022-12-29T22:32:02.253Z,6.1
2022-12-29T22:35:07.924Z,7.5
2022-12-29T22:38:06.181Z,9.6
2022-12-29T22:41:08.152Z,8.4
2022-12-29T22:44:10.122Z,10.2
2022-12-29T22:47:12.095Z,3.8
2022-12-29T22:50:14.060Z,10.3
2022-12-29T22:53:16.053Z,7.9
2022-12-29T22:56:18.021Z,8.6
2022-12-29T22:59:19.951Z,8.5
2022-12-29T23:02:22.128Z,7.2
2022-12-29T23:05:23.894Z,5.8
2022-12-29T23:08:25.861Z,6
2022-12-29T23:11:27.819Z,6.9
2022-12-29T23:14:29.787Z,8.9
2022-12-29T23:17:31.763Z,5.8
2022-12-29T23:20:33.718Z,3.7
2022-12-29T23:23:35.698Z,6.4
2022-12-29T23:26:37.653Z,4.1
2022-12-29T23:29:39.620Z,7.9
2022-12-29T23:32:41.577Z,6.9
2022-12-29T23:35:43.547Z,8
2022-12-29T23:38:45.510Z,11.6
2022-12-29T23:41:47.470Z,7.9
2022-12-29T23:44:49.466Z,8.3
2022-12-29T23:47:51.395Z,6.7
2022-12-29T23:50:53.343Z,6.5
2022-12-29T23:53:55.319Z,6.4
2022-12-29T23:56:57.279Z,8.3
2022-12-29T23:59:59.226Z,6.7
